Time;durP1;ratioP1;P1;durP2;ratioP2;P2;SDS_P1;SDS_P2;PMS_P1;PMS_P2;Temp;Humidity;BMP_temperature;BMP_pressure;BME280_temperature;BME280_humidity;BME280_pressure;Samples;Min_cycle;Max_cycle;Signal;HPM_P1;HPM_P2
2022/06/24 00:00:16;;;;;;;20.92;7.05;;;25.50;61.40;;;;;;5014265;28;20042;-50
2022/06/24 00:02:47;;;;;;;25.73;6.97;;;25.50;61.80;;;;;;5013870;28;20092;-52
2022/06/24 00:05:13;;;;;;;20.20;6.40;;;25.40;62.30;;;;;;5014320;28;20021;-54
2022/06/24 00:07:47;;;;;;;21.10;5.67;;;25.40;62.50;;;;;;5013824;28;20087;-52
2022/06/24 00:10:18;;;;;;;22.83;6.88;;;25.40;62.40;;;;;;5014253;28;20058;-52
2022/06/24 00:12:45;;;;;;;18.23;6.22;;;25.50;62.50;;;;;;5002743;28;20030;-52
2022/06/24 00:15:11;;;;;;;18.33;7.72;;;25.50;62.50;;;;;;5013848;28;20410;-53
2022/06/24 00:17:37;;;;;;;20.03;6.97;;;25.50;62.60;;;;;;5012952;28;20034;-52
2022/06/24 00:20:06;;;;;;;19.60;6.60;;;25.50;62.60;;;;;;5013834;28;20695;-51
2022/06/24 00:22:44;;;;;;;23.05;6.43;;;25.50;62.80;;;;;;5013125;28;20034;-49
2022/06/24 00:25:18;;;;;;;14.48;6.40;;;25.50;63.10;;;;;;5013923;28;20363;-51
2022/06/24 00:27:57;;;;;;;20.90;7.00;;;25.50;62.90;;;;;;5013663;28;20061;-52
2022/06/24 00:30:23;;;;;;;21.58;8.20;;;25.50;62.60;;;;;;5013628;28;20026;-51
2022/06/24 00:32:49;;;;;;;24.93;7.27;;;25.40;62.50;;;;;;5013628;28;20272;-52
2022/06/24 00:35:17;;;;;;;18.27;7.70;;;25.40;62.60;;;;;;5013459;28;20026;-52
2022/06/24 00:37:44;;;;;;;13.57;7.32;;;25.40;62.80;;;;;;5013479;28;20079;-53
2022/06/24 00:40:10;;;;;;;18.98;6.28;;;25.30;63.00;;;;;;5013394;28;20105;-50
2022/06/24 00:42:44;;;;;;;20.03;7.30;;;25.20;63.30;;;;;;5013250;28;21270;-52
2022/06/24 00:45:35;;;;;;;25.13;7.63;;;25.20;63.60;;;;;;5013114;28;20033;-54
2022/06/24 00:48:27;;;;;;;17.92;6.72;;;25.10;63.30;;;;;;5013493;28;20030;-50
2022/06/24 00:50:53;;;;;;;14.18;5.88;;;25.00;63.60;;;;;;5013380;28;20072;-49
2022/06/24 00:53:18;;;;;;;16.60;6.77;;;24.90;64.00;;;;;;5013371;28;20030;-52
2022/06/24 00:55:46;;;;;;;16.93;6.40;;;24.90;64.20;;;;;;5012963;28;20394;-49
2022/06/24 00:58:18;;;;;;;18.90;6.78;;;24.90;64.30;;;;;;5013452;28;20385;-50
2022/06/24 01:00:49;;;;;;;18.10;7.82;;;24.90;65.00;;;;;;5012757;28;20030;-49
2022/06/24 01:03:15;;;;;;;18.95;6.70;;;24.90;65.20;;;;;;5013176;28;20116;-50
2022/06/24 01:05:42;;;;;;;20.30;7.55;;;24.90;65.10;;;;;;5012585;28;20022;-51
2022/06/24 01:08:10;;;;;;;26.00;8.98;;;24.70;64.30;;;;;;5011777;28;20034;-50
2022/06/24 01:10:37;;;;;;;22.02;8.00;;;24.50;65.20;;;;;;5013226;28;20177;-49
2022/06/24 01:13:07;;;;;;;16.77;8.48;;;24.30;65.80;;;;;;5013266;28;20033;-49
2022/06/24 01:15:33;;;;;;;15.25;7.80;;;24.30;66.40;;;;;;5012719;28;20490;-51
2022/06/24 01:17:58;;;;;;;19.40;7.13;;;24.30;66.60;;;;;;5011214;28;20080;-50
2022/06/24 01:20:24;;;;;;;17.40;8.33;;;24.40;66.40;;;;;;5012479;28;21956;-51
2022/06/24 01:22:50;;;;;;;19.60;8.33;;;24.40;66.50;;;;;;5012324;28;20073;-50
2022/06/24 01:25:16;;;;;;;17.60;7.23;;;24.40;66.30;;;;;;5012964;28;20033;-48
2022/06/24 01:27:41;;;;;;;19.57;7.47;;;24.30;66.40;;;;;;4995242;28;20372;-48
2022/06/24 01:30:09;;;;;;;17.47;7.53;;;24.30;66.70;;;;;;5012404;28;20026;-50
2022/06/24 01:32:35;;;;;;;18.10;7.20;;;24.30;66.50;;;;;;5012492;28;20026;-49
2022/06/24 01:35:02;;;;;;;19.60;8.27;;;24.30;66.50;;;;;;5012543;28;20080;-49
2022/06/24 01:37:27;;;;;;;15.18;6.97;;;24.30;66.50;;;;;;5012753;28;20161;-50
2022/06/24 01:39:53;;;;;;;23.33;7.83;;;24.30;66.70;;;;;;5011830;28;20522;-49
2022/06/24 01:42:18;;;;;;;18.67;7.27;;;24.30;66.90;;;;;;5012481;28;20423;-49
2022/06/24 01:44:44;;;;;;;21.53;7.50;;;24.30;66.60;;;;;;5012059;28;20072;-50
2022/06/24 01:47:10;;;;;;;17.03;7.43;;;24.30;66.50;;;;;;5010389;28;20037;-49
2022/06/24 01:49:36;;;;;;;18.77;8.20;;;24.40;66.30;;;;;;5010953;28;20064;-49
2022/06/24 01:52:01;;;;;;;20.47;7.73;;;24.40;66.40;;;;;;5012535;28;20026;-49
2022/06/24 01:54:27;;;;;;;22.80;6.83;;;24.30;66.40;;;;;;5011068;28;20025;-48
2022/06/24 01:56:54;;;;;;;23.85;9.00;;;24.30;67.30;;;;;;5011890;28;20038;-52
2022/06/24 01:59:20;;;;;;;18.10;8.50;;;24.20;66.90;;;;;;5008191;28;20088;-50
2022/06/24 02:01:46;;;;;;;22.97;9.17;;;24.30;66.90;;;;;;5010717;28;20034;-49
2022/06/24 02:04:12;;;;;;;22.93;9.27;;;24.20;67.40;;;;;;5011985;28;20113;-49
2022/06/24 02:06:39;;;;;;;20.05;8.52;;;24.00;67.80;;;;;;5010542;28;20395;-52
2022/06/24 02:09:05;;;;;;;18.88;8.10;;;24.00;67.80;;;;;;5004812;28;20021;-49
2022/06/24 02:14:19;;;;;;;25.25;8.18;;;24.00;68.30;;;;;;5009031;28;19941;-49
2022/06/24 02:16:45;;;;;;;19.02;7.90;;;24.10;67.60;;;;;;5011182;28;20380;-49
2022/06/24 02:19:11;;;;;;;20.35;8.15;;;24.20;67.40;;;;;;5011704;28;20026;-50
2022/06/24 02:21:38;;;;;;;17.93;8.00;;;24.10;67.10;;;;;;5012065;28;20088;-49
2022/06/24 02:24:05;;;;;;;24.05;7.93;;;24.10;67.00;;;;;;5012250;28;20030;-52
2022/06/24 02:26:31;;;;;;;19.60;8.40;;;24.10;67.20;;;;;;5010922;28;20033;-51
2022/06/24 02:28:57;;;;;;;15.53;8.00;;;24.10;67.40;;;;;;5011445;28;20022;-50
2022/06/24 02:31:23;;;;;;;18.10;8.30;;;24.10;67.60;;;;;;5011186;28;20036;-52
2022/06/24 02:33:48;;;;;;;19.65;9.07;;;24.10;68.40;;;;;;5010399;28;20479;-52
2022/06/24 02:36:15;;;;;;;16.20;7.43;;;24.10;68.00;;;;;;5010710;28;20052;-53
2022/06/24 02:38:41;;;;;;;23.00;8.77;;;24.10;67.90;;;;;;5011584;28;20022;-49
2022/06/24 02:41:07;;;;;;;18.27;9.10;;;24.10;67.40;;;;;;5010537;28;20029;-50
2022/06/24 02:43:35;;;;;;;29.43;8.47;;;24.10;67.50;;;;;;5011214;28;20021;-52
2022/06/24 02:46:02;;;;;;;16.52;8.10;;;24.10;67.80;;;;;;5011463;28;20487;-50
2022/06/24 02:48:29;;;;;;;19.17;9.48;;;24.00;67.80;;;;;;5011423;28;20030;-53
2022/06/24 02:50:55;;;;;;;;;;;24.10;67.50;;;;;;5011989;28;20022;-52
2022/06/24 02:53:22;;;;;;;21.85;9.10;;;24.00;67.20;;;;;;5015483;28;19909;-50
2022/06/24 02:55:51;;;;;;;24.83;8.65;;;23.80;67.60;;;;;;5015415;28;20029;-50
2022/06/24 02:58:17;;;;;;;18.52;9.05;;;23.80;67.90;;;;;;5015435;28;20054;-52
2022/06/24 03:00:44;;;;;;;17.53;7.60;;;23.80;68.30;;;;;;5015398;28;20061;-51
2022/06/24 03:03:11;;;;;;;27.60;8.00;;;23.90;68.00;;;;;;5015326;28;20109;-49
2022/06/24 03:05:37;;;;;;;18.23;9.05;;;23.80;68.10;;;;;;5015479;28;20110;-51
2022/06/24 03:08:04;;;;;;;16.92;7.78;;;23.90;67.90;;;;;;5015469;28;20033;-53
2022/06/24 03:10:30;;;;;;;23.23;8.40;;;23.90;67.90;;;;;;5015560;28;20021;-52
2022/06/24 03:12:55;;;;;;;23.87;8.33;;;23.90;68.10;;;;;;5014026;28;20453;-51
2022/06/24 03:15:21;;;;;;;12.50;6.67;;;23.80;67.50;;;;;;5015504;28;20053;-53
2022/06/24 03:17:47;;;;;;;25.50;7.37;;;23.80;67.50;;;;;;5015441;28;20386;-53
2022/06/24 03:20:13;;;;;;;14.50;7.60;;;23.70;67.80;;;;;;5015433;28;20336;-50
2022/06/24 03:22:39;;;;;;;18.47;8.43;;;23.70;67.90;;;;;;5014612;28;20069;-50
2022/06/24 03:25:06;;;;;;;25.75;9.57;;;23.70;68.00;;;;;;5014753;28;20391;-50
2022/06/24 03:27:32;;;;;;;;;;;23.80;67.80;;;;;;5015778;28;20018;-51
2022/06/24 03:29:58;;;;;;;17.75;7.55;;;23.70;67.70;;;;;;5015038;28;19912;-51
2022/06/24 03:32:24;;;;;;;14.00;7.93;;;23.70;67.80;;;;;;5014874;28;20036;-52
2022/06/24 03:34:49;;;;;;;20.77;8.37;;;23.70;67.70;;;;;;5014804;28;20026;-52
2022/06/24 03:37:15;;;;;;;16.80;8.13;;;23.70;68.00;;;;;;5014585;28;20037;-53
2022/06/24 03:39:41;;;;;;;16.27;7.67;;;23.70;68.10;;;;;;5014195;28;20477;-52
2022/06/24 03:42:07;;;;;;;14.30;7.47;;;23.70;68.30;;;;;;5014572;28;20161;-51
2022/06/24 03:44:32;;;;;;;15.10;7.23;;;23.70;68.40;;;;;;5014744;28;20073;-50
2022/06/24 03:46:58;;;;;;;21.70;7.83;;;23.70;68.30;;;;;;5013961;28;20384;-50
2022/06/24 03:49:24;;;;;;;23.97;8.50;;;23.70;68.40;;;;;;5014825;28;20471;-53
2022/06/24 03:51:50;;;;;;;27.87;7.40;;;23.70;68.40;;;;;;5014448;28;20030;-50
2022/06/24 03:54:16;;;;;;;15.23;8.20;;;23.70;68.10;;;;;;5014534;28;20038;-54
2022/06/24 03:56:42;;;;;;;22.00;7.83;;;23.70;68.50;;;;;;5014804;28;20033;-53
2022/06/24 03:59:07;;;;;;;26.40;8.37;;;23.70;67.70;;;;;;5013729;28;20034;-54
2022/06/24 04:01:33;;;;;;;14.10;7.83;;;23.70;67.70;;;;;;5013797;28;20407;-54
2022/06/24 04:03:59;;;;;;;20.57;8.17;;;23.70;67.80;;;;;;5014174;28;20487;-51
2022/06/24 04:06:25;;;;;;;21.53;8.53;;;23.60;67.70;;;;;;5014268;28;20088;-50
2022/06/24 04:08:52;;;;;;;23.83;9.40;;;23.60;67.80;;;;;;5014291;28;20101;-51
2022/06/24 04:11:18;;;;;;;20.02;9.43;;;23.50;68.00;;;;;;5014328;28;20406;-51
2022/06/24 04:13:44;;;;;;;22.87;8.97;;;23.50;68.20;;;;;;5014142;28;20093;-52
2022/06/24 04:16:10;;;;;;;26.42;9.90;;;23.50;68.20;;;;;;5014285;28;20033;-52
2022/06/24 04:18:36;;;;;;;20.97;9.33;;;23.50;68.30;;;;;;5014249;28;20026;-51
2022/06/24 04:21:02;;;;;;;18.60;7.90;;;23.50;68.40;;;;;;5014249;28;20148;-50
2022/06/24 04:23:28;;;;;;;20.47;10.10;;;23.50;68.40;;;;;;5013943;28;20526;-53
2022/06/24 04:25:54;;;;;;;18.10;8.90;;;23.60;68.20;;;;;;5014199;28;20399;-53
2022/06/24 04:28:20;;;;;;;23.57;9.20;;;23.60;68.30;;;;;;5012683;28;20146;-53
2022/06/24 04:30:46;;;;;;;22.60;9.60;;;23.60;68.50;;;;;;5014156;28;20064;-54
2022/06/24 04:33:12;;;;;;;19.75;9.52;;;23.60;68.40;;;;;;5013952;28;20080;-53
2022/06/24 04:35:40;;;;;;;22.23;8.90;;;23.70;68.80;;;;;;5012708;28;20022;-50
2022/06/24 04:38:05;;;;;;;19.27;8.88;;;23.70;68.80;;;;;;5013791;28;20026;-50
2022/06/24 04:40:31;;;;;;;20.97;8.10;;;23.70;68.70;;;;;;5013972;28;20037;-54
2022/06/24 04:42:57;;;;;;;17.57;8.97;;;23.80;68.60;;;;;;5013668;28;20057;-52
2022/06/24 04:45:22;;;;;;;20.87;8.53;;;23.80;68.50;;;;;;5013658;28;20494;-54
2022/06/24 04:47:48;;;;;;;20.90;8.07;;;23.80;68.40;;;;;;5013531;28;20509;-51
2022/06/24 04:50:14;;;;;;;18.70;8.03;;;23.90;68.50;;;;;;5013683;28;20022;-53
2022/06/24 04:52:40;;;;;;;22.37;7.60;;;24.00;68.30;;;;;;5013542;28;20018;-51
2022/06/24 04:55:07;;;;;;;20.13;9.67;;;24.00;68.40;;;;;;5013733;28;20112;-53
2022/06/24 04:57:33;;;;;;;;;;;24.10;68.40;;;;;;5013820;28;20394;-51
2022/06/24 04:59:58;;;;;;;18.95;6.85;;;24.10;68.10;;;;;;5013491;28;19909;-51
2022/06/24 05:02:24;;;;;;;23.30;8.50;;;24.20;68.60;;;;;;5012183;28;20026;-56
2022/06/24 05:04:50;;;;;;;19.97;9.03;;;24.20;68.80;;;;;;5012141;28;20025;-50
2022/06/24 05:07:16;;;;;;;18.70;7.97;;;24.30;68.40;;;;;;5012004;28;20021;-53
2022/06/24 05:09:42;;;;;;;29.03;8.13;;;24.30;68.20;;;;;;5013426;28;20054;-54
2022/06/24 05:12:09;;;;;;;22.75;7.45;;;24.40;67.80;;;;;;5013234;28;20471;-50
2022/06/24 05:14:35;;;;;;;22.05;7.68;;;24.40;67.70;;;;;;5012269;28;20526;-54
2022/06/24 05:17:01;;;;;;;19.23;8.70;;;24.50;67.50;;;;;;5013220;28;20068;-53
2022/06/24 05:19:27;;;;;;;30.87;9.10;;;24.50;67.00;;;;;;5013095;28;20287;-54
2022/06/24 05:21:53;;;;;;;21.13;8.60;;;24.50;67.00;;;;;;5013149;28;20257;-53
2022/06/24 05:24:19;;;;;;;25.23;9.23;;;24.60;67.50;;;;;;5012967;28;20034;-52
2022/06/24 05:26:45;;;;;;;23.40;8.47;;;24.70;67.60;;;;;;5013053;28;20100;-51
2022/06/24 05:29:11;;;;;;;19.88;7.55;;;24.80;67.70;;;;;;5012777;28;20029;-53
2022/06/24 05:31:37;;;;;;;16.00;7.97;;;24.80;67.20;;;;;;5012996;28;20029;-54
2022/06/24 05:34:04;;;;;;;20.40;7.40;;;24.90;67.00;;;;;;5012722;28;20287;-52
2022/06/24 05:36:30;;;;;;;17.95;7.47;;;25.00;66.60;;;;;;5012851;28;20037;-50
2022/06/24 05:38:56;;;;;;;20.50;7.70;;;25.00;66.00;;;;;;5012626;28;20587;-54
2022/06/24 05:41:22;;;;;;;16.00;6.67;;;25.00;66.20;;;;;;5011757;28;20113;-52
2022/06/24 05:43:48;;;;;;;14.70;6.03;;;25.00;66.10;;;;;;5012585;28;20071;-51
2022/06/24 05:46:14;;;;;;;13.97;6.33;;;25.10;65.60;;;;;;5012719;28;20018;-54
2022/06/24 05:48:40;;;;;;;17.53;6.67;;;25.10;65.40;;;;;;5011123;28;20506;-50
2022/06/24 05:51:09;;;;;;;23.88;7.78;;;25.20;64.90;;;;;;5012649;28;20026;-50
2022/06/24 05:56:21;;;;;;;15.45;6.35;;;25.30;65.00;;;;;;5012792;28;20076;-51
2022/06/24 05:58:47;;;;;;;14.87;6.67;;;25.30;64.70;;;;;;5012333;28;20475;-51
2022/06/24 06:01:13;;;;;;;16.85;5.20;;;25.40;64.20;;;;;;5012370;28;20038;-49
2022/06/24 06:03:40;;;;;;;19.73;5.85;;;25.40;64.30;;;;;;5012181;28;20403;-53
2022/06/24 06:06:07;;;;;;;17.48;5.53;;;25.50;63.60;;;;;;5012353;28;20025;-49
2022/06/24 06:08:34;;;;;;;13.68;4.25;;;25.50;63.20;;;;;;5012136;28;20533;-51
2022/06/24 06:11:00;;;;;;;;;;;25.60;62.60;;;;;;5012735;28;20058;-52
2022/06/24 06:13:26;;;;;;;17.90;4.82;;;25.60;62.80;;;;;;5012074;28;20366;-50
2022/06/24 06:15:51;;;;;;;19.08;5.40;;;25.60;63.30;;;;;;5012132;28;20514;-52
2022/06/24 06:18:17;;;;;;;12.57;4.87;;;25.70;62.30;;;;;;5012061;28;20042;-50
2022/06/24 06:20:43;;;;;;;10.33;4.03;;;25.80;62.60;;;;;;5012137;28;20026;-50
2022/06/24 06:23:09;;;;;;;15.87;4.87;;;25.90;62.10;;;;;;5011860;28;20076;-51
2022/06/24 06:25:35;;;;;;;17.63;6.17;;;26.00;62.90;;;;;;5011965;28;20502;-50
2022/06/24 06:28:04;;;;;;;16.00;5.72;;;26.00;63.00;;;;;;5012008;28;20454;-50
2022/06/24 06:30:30;;;;;;;17.70;4.03;;;26.10;62.80;;;;;;5012118;28;20532;-49
2022/06/24 06:32:56;;;;;;;11.80;4.78;;;26.10;61.30;;;;;;5010717;28;20152;-51
2022/06/24 06:35:21;;;;;;;15.27;5.53;;;26.20;61.30;;;;;;5010639;28;20546;-54
2022/06/24 06:37:47;;;;;;;20.67;5.67;;;26.20;61.30;;;;;;5011824;28;20025;-50
2022/06/24 06:40:13;;;;;;;14.50;5.37;;;26.20;61.30;;;;;;5011978;28;20053;-50
2022/06/24 06:42:39;;;;;;;20.30;4.87;;;26.20;61.20;;;;;;5011714;28;20052;-54
2022/06/24 06:45:05;;;;;;;17.43;5.00;;;26.30;61.40;;;;;;5011891;28;20494;-49
2022/06/24 06:47:31;;;;;;;24.00;4.07;;;26.30;61.70;;;;;;5011728;28;20510;-50
2022/06/24 06:49:56;;;;;;;14.37;4.57;;;26.30;61.00;;;;;;5011838;28;20049;-54
2022/06/24 06:52:22;;;;;;;16.30;4.77;;;26.40;60.80;;;;;;5011774;28;20068;-52
2022/06/24 06:54:48;;;;;;;15.23;4.57;;;26.50;61.20;;;;;;5011812;28;20079;-50
2022/06/24 06:57:13;;;;;;;11.80;4.50;;;26.60;60.60;;;;;;5011572;28;20026;-50
2022/06/24 06:59:39;;;;;;;17.90;5.03;;;26.60;60.90;;;;;;5011714;28;20176;-51
2022/06/24 07:02:05;;;;;;;23.00;4.90;;;26.70;61.20;;;;;;5011695;28;20494;-50
2022/06/24 07:04:31;;;;;;;13.70;3.97;;;26.70;59.90;;;;;;5011765;28;20071;-50
2022/06/24 07:06:57;;;;;;;16.07;4.23;;;26.70;58.80;;;;;;5011926;28;20104;-50
2022/06/24 07:09:23;;;;;;;15.67;4.27;;;26.80;59.10;;;;;;5011617;28;20048;-53
2022/06/24 07:11:48;;;;;;;13.43;4.40;;;26.80;59.00;;;;;;5010337;28;20376;-50
2022/06/24 07:14:14;;;;;;;23.30;5.07;;;26.80;59.50;;;;;;5011571;28;20699;-50
2022/06/24 07:16:40;;;;;;;23.20;4.70;;;26.80;59.30;;;;;;5011758;28;20037;-51
2022/06/24 07:19:05;;;;;;;17.67;3.97;;;26.90;59.10;;;;;;5011596;28;20462;-49
2022/06/24 07:21:31;;;;;;;14.33;3.90;;;27.00;58.80;;;;;;5011693;28;20036;-52
2022/06/24 07:23:57;;;;;;;12.60;4.70;;;27.00;57.80;;;;;;5011741;28;20030;-53
2022/06/24 07:26:22;;;;;;;15.57;4.63;;;27.10;58.00;;;;;;5011507;28;20029;-51
2022/06/24 07:28:48;;;;;;;13.03;3.83;;;27.10;57.80;;;;;;5011383;28;20053;-52
2022/06/24 07:31:18;;;;;;;41.00;5.93;;;27.30;57.60;;;;;;5011556;28;20026;-56
2022/06/24 07:33:44;;;;;;;15.95;5.47;;;27.30;58.90;;;;;;5011333;28;20081;-57
2022/06/24 07:36:10;;;;;;;16.42;4.57;;;;;;;;;;5011873;28;20117;-58
2022/06/24 07:38:36;;;;;;;16.60;4.63;;;27.50;57.60;;;;;;5015039;28;20045;-55
2022/06/24 07:41:02;;;;;;;24.00;4.40;;;27.50;57.30;;;;;;5014999;28;20037;-55
2022/06/24 07:43:28;;;;;;;16.70;5.13;;;;;;;;;;5014985;28;20030;-50
2022/06/24 07:45:55;;;;;;;16.73;4.18;;;27.50;56.20;;;;;;5013679;28;20265;-50
2022/06/24 07:48:21;;;;;;;19.48;5.18;;;27.50;56.90;;;;;;5014722;28;20029;-49
2022/06/24 07:50:46;;;;;;;20.43;4.50;;;27.60;56.20;;;;;;5014886;28;20022;-51
2022/06/24 07:53:12;;;;;;;19.60;5.37;;;27.60;55.20;;;;;;5014812;28;20041;-49
2022/06/24 07:58:22;;;;;;;13.65;4.20;;;27.60;55.70;;;;;;5014472;28;20040;-50
2022/06/24 08:00:48;;;;;;;13.67;4.43;;;27.60;55.70;;;;;;5014838;28;20026;-52
2022/06/24 08:03:15;;;;;;;15.27;3.30;;;27.60;55.60;;;;;;5014497;28;20368;-51
2022/06/24 08:05:40;;;;;;;13.43;3.33;;;27.70;54.40;;;;;;5014774;28;20036;-49
2022/06/24 08:08:06;;;;;;;18.97;3.67;;;27.80;54.20;;;;;;5014362;28;20026;-50
2022/06/24 08:10:32;;;;;;;20.58;3.75;;;27.80;54.30;;;;;;5014459;28;20027;-50
2022/06/24 08:12:58;;;;;;;19.52;4.38;;;27.90;54.50;;;;;;5014552;28;20407;-51
2022/06/24 08:15:24;;;;;;;18.00;4.60;;;28.00;53.80;;;;;;5014414;28;20025;-50
2022/06/24 08:17:50;;;;;;;17.50;3.47;;;28.10;54.20;;;;;;5014129;28;20057;-54
2022/06/24 08:20:15;;;;;;;12.40;3.10;;;28.10;52.80;;;;;;5014298;28;20026;-50
2022/06/24 08:22:41;;;;;;;9.40;2.77;;;28.20;51.70;;;;;;5014314;28;20030;-50
2022/06/24 08:25:07;;;;;;;13.53;3.20;;;28.30;51.10;;;;;;5014152;28;20065;-50
2022/06/24 08:27:33;;;;;;;19.55;3.80;;;28.30;51.80;;;;;;5012728;28;20030;-50
2022/06/24 08:29:59;;;;;;;12.88;3.22;;;28.30;51.50;;;;;;5014177;28;20022;-50
2022/06/24 08:32:25;;;;;;;14.77;3.87;;;28.40;52.50;;;;;;5013645;28;20057;-51
2022/06/24 08:34:51;;;;;;;14.40;4.70;;;28.40;51.90;;;;;;5013899;28;20494;-50
2022/06/24 08:37:16;;;;;;;10.90;3.80;;;28.50;50.80;;;;;;5013660;28;20037;-53
2022/06/24 08:39:42;;;;;;;9.27;2.73;;;28.50;50.80;;;;;;5012567;28;20052;-54
2022/06/24 08:42:12;;;;;;;12.77;4.07;;;28.50;50.00;;;;;;5013844;28;20104;-50
2022/06/24 08:44:38;;;;;;;14.93;3.58;;;28.50;49.20;;;;;;5012455;28;20510;-51
2022/06/24 08:47:04;;;;;;;17.23;3.88;;;28.50;49.60;;;;;;5013571;28;20048;-55
2022/06/24 08:49:36;;;;;;;11.50;2.90;;;28.60;50.40;;;;;;5013743;28;20547;-49
2022/06/24 08:52:08;;;;;;;15.82;3.58;;;28.70;50.80;;;;;;5013692;28;20025;-51
2022/06/24 08:54:36;;;;;;;12.88;3.55;;;28.80;50.30;;;;;;5012499;28;20419;-50
2022/06/24 08:57:02;;;;;;;16.17;4.28;;;28.90;50.40;;;;;;5013648;28;20014;-50
2022/06/24 08:59:29;;;;;;;11.33;3.50;;;29.00;49.80;;;;;;5013460;28;20091;-50
2022/06/24 09:01:55;;;;;;;7.53;3.05;;;29.00;50.00;;;;;;5013690;28;20030;-54
2022/06/24 09:04:23;;;;;;;10.80;3.10;;;29.10;49.60;;;;;;5013299;28;20552;-50
2022/06/24 09:06:49;;;;;;;13.38;3.55;;;29.20;49.30;;;;;;5013491;28;20090;-50
2022/06/24 09:09:23;;;;;;;12.95;3.50;;;29.30;49.50;;;;;;5013236;28;20060;-52
2022/06/24 09:11:54;;;;;;;12.32;3.55;;;29.40;49.10;;;;;;5013276;28;20144;-52
2022/06/24 09:14:19;;;;;;;13.10;3.85;;;29.40;49.40;;;;;;5013170;28;20498;-50
2022/06/24 09:16:45;;;;;;;8.70;3.00;;;29.40;48.70;;;;;;5013313;28;20026;-50
2022/06/24 09:19:14;;;;;;;18.27;3.40;;;29.40;48.30;;;;;;5013047;28;20030;-53
2022/06/24 09:21:42;;;;;;;17.23;3.40;;;29.40;49.20;;;;;;5013196;28;20030;-50
2022/06/24 09:24:09;;;;;;;14.10;3.20;;;29.50;49.30;;;;;;5012886;28;20034;-50
2022/06/24 09:26:35;;;;;;;9.32;3.38;;;29.50;48.40;;;;;;5013115;28;20021;-50
2022/06/24 09:29:05;;;;;;;13.87;3.77;;;29.50;47.50;;;;;;5012950;28;20735;-49
2022/06/24 09:31:32;;;;;;;9.88;3.20;;;29.50;48.50;;;;;;5011714;28;20257;-53
2022/06/24 09:34:08;;;;;;;7.70;1.77;;;29.50;48.10;;;;;;5012928;28;20034;-50
2022/06/24 09:36:35;;;;;;;12.57;3.03;;;29.60;48.10;;;;;;5012899;28;20022;-50
2022/06/24 09:39:07;;;;;;;8.88;2.60;;;29.60;48.60;;;;;;5012743;28;20145;-50
2022/06/24 09:41:47;;;;;;;13.68;3.63;;;29.80;48.10;;;;;;5012749;28;20109;-50
2022/06/24 09:44:14;;;;;;;12.90;3.30;;;29.80;47.80;;;;;;5012598;28;20033;-50
2022/06/24 09:46:41;;;;;;;12.07;3.30;;;29.90;47.90;;;;;;5012736;28;20057;-50
2022/06/24 09:49:10;;;;;;;10.38;2.40;;;30.00;47.20;;;;;;5012560;28;20018;-50
2022/06/24 09:51:36;;;;;;;11.98;3.03;;;30.20;47.20;;;;;;5012632;28;20032;-50
2022/06/24 09:54:03;;;;;;;13.82;3.47;;;30.20;47.10;;;;;;5012598;28;20105;-53
2022/06/24 09:56:31;;;;;;;5.72;2.20;;;30.30;47.00;;;;;;5012542;28;20026;-51
2022/06/24 10:01:43;;;;;;;8.15;2.42;;;30.60;45.80;;;;;;5012501;28;20095;-51
2022/06/24 10:04:15;;;;;;;9.88;3.00;;;30.60;44.80;;;;;;5012415;28;20029;-54
2022/06/24 10:06:46;;;;;;;12.00;3.03;;;30.60;44.40;;;;;;5011147;28;20033;-55
2022/06/24 10:09:13;;;;;;;10.48;2.42;;;30.50;44.50;;;;;;5012109;28;20026;-50
2022/06/24 10:11:41;;;;;;;28.30;3.72;;;30.50;44.30;;;;;;5009988;28;20030;-50
2022/06/24 10:14:08;;;;;;;9.40;2.70;;;30.50;44.70;;;;;;5011484;28;20454;-50
2022/06/24 10:16:35;;;;;;;12.57;3.35;;;30.70;45.20;;;;;;5015260;28;20087;-50
2022/06/24 10:19:03;;;;;;;10.85;3.38;;;30.90;44.60;;;;;;5014079;28;20409;-50
2022/06/24 10:21:29;;;;;;;8.35;2.70;;;31.00;44.80;;;;;;5010724;28;20164;-51
2022/06/24 10:23:56;;;;;;;10.23;2.92;;;31.20;43.90;;;;;;5011617;28;20034;-50
2022/06/24 10:26:25;;;;;;;9.63;2.55;;;31.30;44.00;;;;;;5012279;28;20022;-50
2022/06/24 10:29:03;;;;;;;13.00;3.17;;;31.40;43.00;;;;;;5024603;28;20501;-50
2022/06/24 10:31:56;;;;;;;10.30;2.33;;;31.40;44.00;;;;;;4996584;28;20030;-54
2022/06/24 10:34:33;;;;;;;11.15;2.63;;;31.50;43.40;;;;;;5011500;28;20121;-51
2022/06/24 10:37:02;;;;;;;9.77;2.15;;;31.40;44.60;;;;;;5010436;28;20026;-50
2022/06/24 10:39:46;;;;;;;9.73;2.45;;;31.40;43.10;;;;;;5001214;28;20038;-51
2022/06/24 10:42:14;;;;;;;10.73;2.45;;;31.50;43.80;;;;;;5006294;28;20491;-50
2022/06/24 10:44:53;;;;;;;8.13;2.58;;;31.60;43.70;;;;;;5010008;28;20037;-51
2022/06/24 10:47:19;;;;;;;10.40;2.30;;;31.70;42.80;;;;;;5011877;28;20030;-51
2022/06/24 10:50:13;;;;;;;9.45;2.35;;;31.70;42.80;;;;;;5011433;28;20110;-52
2022/06/24 10:52:39;;;;;;;9.13;2.45;;;31.80;41.10;;;;;;4999493;28;20038;-54
2022/06/24 10:55:17;;;;;;;7.78;2.70;;;31.70;41.70;;;;;;5011790;28;20036;-52
2022/06/24 10:57:54;;;;;;;8.85;2.58;;;31.60;41.30;;;;;;5010547;28;20164;-53
2022/06/24 11:00:48;;;;;;;8.15;2.00;;;31.50;40.50;;;;;;5010824;28;20028;-50
2022/06/24 11:03:19;;;;;;;7.03;2.00;;;31.50;40.10;;;;;;5008082;28;20038;-50
2022/06/24 11:05:47;;;;;;;10.95;2.63;;;31.60;39.30;;;;;;5010871;28;20022;-50
2022/06/24 11:08:14;;;;;;;9.32;1.40;;;31.80;39.00;;;;;;4985885;28;20042;-54
2022/06/24 11:10:41;;;;;;;7.05;2.00;;;31.90;38.00;;;;;;5003683;28;20394;-52
2022/06/24 11:13:07;;;;;;;29.75;2.45;;;32.00;38.40;;;;;;5014023;28;20028;-53
2022/06/24 11:15:37;;;;;;;;;;;32.20;37.80;;;;;;5014183;28;20026;-52
2022/06/24 11:18:21;;;;;;;7.95;1.98;;;32.40;38.30;;;;;;5014771;28;19906;-54
2022/06/24 11:20:55;;;;;;;6.82;2.00;;;32.60;36.30;;;;;;5013740;28;20483;-50
2022/06/24 11:23:26;;;;;;;7.78;2.17;;;32.70;35.80;;;;;;5004891;28;20168;-53
2022/06/24 11:26:02;;;;;;;8.27;2.25;;;32.70;35.80;;;;;;5015239;28;20038;-53
2022/06/24 11:28:30;;;;;;;7.55;1.58;;;32.80;36.30;;;;;;5015249;28;20052;-52
2022/06/24 11:31:12;;;;;;;7.60;1.50;;;32.80;34.80;;;;;;5015299;28;20040;-52
2022/06/24 11:33:38;;;;;;;8.77;1.80;;;32.90;35.40;;;;;;5014909;28;20445;-51
2022/06/24 11:36:07;;;;;;;12.03;2.33;;;33.10;35.30;;;;;;5014513;28;20030;-54
2022/06/24 11:38:36;;;;;;;10.75;3.55;;;33.20;35.20;;;;;;5013488;28;20025;-52
2022/06/24 11:41:02;;;;;;;9.43;2.15;;;33.40;35.50;;;;;;5014804;28;20030;-55
2022/06/24 11:43:28;;;;;;;8.75;1.90;;;33.50;35.40;;;;;;5014598;28;20030;-51
2022/06/24 11:45:57;;;;;;;6.75;1.73;;;33.70;34.20;;;;;;5014764;28;20439;-56
2022/06/24 11:48:24;;;;;;;8.23;1.60;;;33.80;34.60;;;;;;5013300;28;20026;-51
2022/06/24 11:50:53;;;;;;;11.75;2.90;;;33.80;34.60;;;;;;5014573;28;20010;-51
2022/06/24 11:53:24;;;;;;;6.90;1.90;;;33.90;33.30;;;;;;5014430;28;20084;-50
2022/06/24 11:55:52;;;;;;;6.85;2.00;;;33.70;33.20;;;;;;5014849;28;20025;-51
2022/06/24 11:58:20;;;;;;;6.25;1.55;;;33.30;34.20;;;;;;5014409;28;20117;-53
2022/06/24 12:00:46;;;;;;;5.60;2.13;;;33.20;34.70;;;;;;5013244;28;20050;-51
2022/06/24 12:03:12;;;;;;;;;;;33.20;34.50;;;;;;5014527;28;20410;-53
2022/06/24 12:05:42;;;;;;;15.80;2.72;;;33.30;34.50;;;;;;5014564;28;20049;-53
2022/06/24 12:08:10;;;;;;;8.10;1.88;;;33.50;35.10;;;;;;5014155;28;20109;-54
2022/06/24 12:10:51;;;;;;;6.95;1.60;;;33.60;34.70;;;;;;5014529;28;20491;-53
2022/06/24 12:13:32;;;;;;;4.93;1.63;;;33.80;34.10;;;;;;4995035;28;20500;-53
2022/06/24 12:15:58;;;;;;;8.00;1.77;;;33.60;34.10;;;;;;5014383;28;20113;-55
2022/06/24 12:18:26;;;;;;;5.30;1.65;;;33.50;33.90;;;;;;5013436;28;20052;-54
2022/06/24 12:20:57;;;;;;;5.72;1.45;;;33.40;33.50;;;;;;5011718;28;20057;-51
2022/06/24 12:23:25;;;;;;;5.85;1.63;;;33.20;34.60;;;;;;5013230;28;20037;-52
2022/06/24 12:25:51;;;;;;;7.15;2.22;;;33.20;33.50;;;;;;5014019;28;20505;-53
2022/06/24 12:28:22;;;;;;;9.98;1.83;;;33.10;33.60;;;;;;5014029;28;20022;-52
2022/06/24 12:31:02;;;;;;;9.15;2.13;;;33.20;33.60;;;;;;5012991;28;20030;-51
2022/06/24 12:33:32;;;;;;;7.07;1.75;;;33.20;34.00;;;;;;5013874;28;20398;-53
2022/06/24 12:36:05;;;;;;;7.25;1.33;;;33.20;33.90;;;;;;5012484;28;20036;-51
2022/06/24 12:38:31;;;;;;;9.02;2.20;;;33.40;33.70;;;;;;5013309;28;20092;-52
2022/06/24 12:41:11;;;;;;;16.55;2.55;;;33.50;34.10;;;;;;5012264;28;20037;-54
2022/06/24 12:43:57;;;;;;;6.95;1.45;;;33.60;33.80;;;;;;5004050;28;20384;-54
2022/06/24 12:50:34;;;;;;;13.00;2.03;;;33.60;33.00;;;;;;5013865;28;20395;-54
2022/06/24 12:52:09;;;;;;;7.40;1.80;;;33.60;33.10;;;;;;5033655;28;20032;-55
2022/06/24 12:54:34;;;;;;;7.93;2.05;;;33.60;32.70;;;;;;5033498;28;20409;-53
2022/06/24 12:57:00;;;;;;;7.37;1.40;;;33.60;33.30;;;;;;5033138;28;20026;-50